Wetterverlauf

Letzte Wetterlage 20.10.2014 14:37
Wetterdiagramm
Tabellarische Darstellung
Datum Temperatur Windchill Feuchte Luftdruck Windrichtung Windstärke Niederschlag
20.10.2014 14:47 15,5 °C 15,5 °C 74 % 1011,3 hPa 0.0 1,90 mm
20.10.2014 14:37 15,4 °C 15,4 °C 74 % 1011,2 hPa 0.0 1,90 mm
20.10.2014 14:27 15,1 °C 15,1 °C 75 % 1011,2 hPa 0.0 1,90 mm
20.10.2014 14:17 14,8 °C 14,8 °C 76 % 1011,2 hPa 0.0 1,90 mm
20.10.2014 14:07 14,6 °C 14,6 °C 78 % 1011,2 hPa 0.0 1,90 mm
20.10.2014 13:57 14,6 °C 14,6 °C 78 % 1011,2 hPa 0.0 1,90 mm
20.10.2014 13:47 14,6 °C 14,6 °C 79 % 1011,2 hPa 0.0 1,90 mm
20.10.2014 13:37 14,6 °C 14,6 °C 80 % 1011,2 hPa 0.0 1,90 mm
20.10.2014 13:27 14,7 °C 14,7 °C 80 % 1011,2 hPa 0.0 1,90 mm
20.10.2014 13:17 14,7 °C 14,7 °C 80 % 1011,2 hPa 0.0 1,90 mm
20.10.2014 13:07 14,8 °C 14,8 °C 80 % 1011,2 hPa 0.0 1,90 mm
20.10.2014 12:57 14,8 °C 14,8 °C 80 % 1011,2 hPa 0.0 1,90 mm
20.10.2014 12:47 14,8 °C 14,8 °C 80 % 1011,2 hPa 0.0 1,90 mm
20.10.2014 12:37 14,8 °C 14,8 °C 80 % 1011,2 hPa 0.0 1,90 mm
20.10.2014 12:27 14,7 °C 14,7 °C 81 % 1011,2 hPa 0.0 1,90 mm
20.10.2014 12:17 14,5 °C 14,5 °C 82 % 1011,2 hPa 0.0 1,90 mm
20.10.2014 12:07 14,5 °C 14,5 °C 83 % 1011,1 hPa 0.0 1,90 mm
20.10.2014 11:57 14,5 °C 14,5 °C 83 % 1011,1 hPa 0.0 1,90 mm
20.10.2014 11:47 14,4 °C 14,4 °C 83 % 1011,0 hPa 0.0 1,90 mm
20.10.2014 11:37 14,3 °C 14,3 °C 83 % 1011,0 hPa 0.0 1,90 mm
20.10.2014 11:27 14,0 °C 14,0 °C 84 % 1010,9 hPa 0.0 1,90 mm
20.10.2014 11:17 13,8 °C 13,8 °C 86 % 1010,8 hPa 0.0 1,90 mm
20.10.2014 11:07 13,7 °C 13,7 °C 86 % 1010,8 hPa 0.0 1,90 mm
20.10.2014 10:57 13,6 °C 13,6 °C 87 % 1010,7 hPa 0.0 1,90 mm
20.10.2014 10:47 13,5 °C 13,5 °C 87 % 1010,6 hPa 0.0 1,90 mm
Empfehlen Sie wetter.com
| Mehr
Neue Wetterwarnung

Neue Niederschlagsmeldung
Neue Meldung
Regen Liveticker
    sehr starker Regen/Gewitter
    starker Regen/Gewitter
    mäßiger bis starker Regen
    mäßiger Regen
    leichter bis mäßiger Regen
    kein Regen